Terminal Aerodrome Forecast
Issued by NWS

Home | Current Version | Previous Version | Text Only | Print | Product List | Glossary On
Versions: 1 2 3 4 5 6 7 8 9 10 11 12 13 14 15
000
FTUS42 KTBW 052005 AAA
TAFRSW
TAF AMD
KRSW 052005Z 0520/0618 18012G18KT P6SM SCT030 BKN050 OVC100
     FM052100 18014G22KT P6SM VCSH SCT025 BKN050 OVC100
     FM060100 15007KT P6SM VCSH SCT025 OVC050
     FM060600 16008KT 5SM -RA BR VCTS SCT015CB OVC025
     FM061400 20010KT 4SM BR OVC015=

USA.gov is the U.S. government's official web portal to all federal, state and local government web resources and services.